Aspen Park, Colorado
Current Conditions -  °F | °C
As of 3:53 AM on Thursday 23 Oct 2014 (Local Time) from KAPA Reporting Station
Scattered Clouds Scattered Clouds  
Wind Chill:   Ceiling: Unl
Heat Index:   Visibility: 10mi
Dew Point:   Wind: 5mph
Humidity: 74%   Direction: 170°S
Pressure: 30.17"   Gusts: NA
Location:  39.4975°N, 105.289°W
Report Text: KAPA 230953Z 17004KT 10SM SCT220 06/02 A3017 RMK AO2 SLP184 T00610017
Loading
Personal Weather Stations






























Interactive Weather Map
Tropical Storm Tracking
New forecast layout! Learn more

10-Day Weather Forecast

Advertisements
Track Severe Weather on mobile